Hlavní strana
METAR-TAF:

METAR-TAF

Letiště :

Flemingsburg, Kentucky, Spojené státy americké

zeměpisná šířka: 38-32-30N, zeměpisná délka: 083-44-36W, výška: 278 m

Aktuální stav počasí

Zpráva byla vytvořena před 25 minutami, v 21:55 UTC
Severoseverovýchodní vítr 14 kt s nárazy do 18 kt
Teplota 5°C
Vlhkost vzduchu 100%
Tlak 1018 hPa
Viditelnost: 4.0 km
Zataženo ve výšce 500 ft
mrholení

METAR: KFGX 252155Z AUTO 02014G18KT 2 1/2SM DZ OVC005 05/05 A3005 RMK AO2 T00510051

Čas: 18:20 (22:20 UTC)


TAF: chybějící

Stav a předpovědi počasí z více než 4 000 letišť (zprávy METAR a TAF).

Červené a žluté tečky na mapě představují dostupné meteorologické stanice.

Když kurzor umístíte na tečku, zobrazí se název stanice.

Pak kliknutím zobrazíte stav a předpověď počasí.

Chcete-li změnit mapu, kliknutím na zelené tlačítko se znaménkem +mapu přiblížíte, kliknutím na zelené tlačítko se znaménkem – mapu oddálíte a kliknutím na zelené šipky přejdete na sousední mapy.


METAR-TAF: